sensor_id;sensor_type;location;lat;lon;timestamp;temperature;humidity
14095;DHT22;18096;48.142;16.290;2023-06-14T00:01:41;14.50;99.90
14095;DHT22;18096;48.142;16.290;2023-06-14T00:04:11;14.50;99.90
14095;DHT22;18096;48.142;16.290;2023-06-14T00:06:38;14.40;99.90
14095;DHT22;18096;48.142;16.290;2023-06-14T00:09:04;14.40;99.90
14095;DHT22;18096;48.142;16.290;2023-06-14T00:11:33;14.40;99.90
14095;DHT22;18096;48.142;16.290;2023-06-14T00:13:58;14.40;99.90
14095;DHT22;18096;48.142;16.290;2023-06-14T00:16:24;14.40;99.90
14095;DHT22;18096;48.142;16.290;2023-06-14T00:18:50;14.40;99.90
14095;DHT22;18096;48.142;16.290;2023-06-14T00:21:18;14.30;99.90
14095;DHT22;18096;48.142;16.290;2023-06-14T00:23:44;14.30;99.90
14095;DHT22;18096;48.142;16.290;2023-06-14T00:26:10;14.30;99.90
14095;DHT22;18096;48.142;16.290;2023-06-14T00:28:35;14.30;99.90
14095;DHT22;18096;48.142;16.290;2023-06-14T00:31:01;14.30;99.90
14095;DHT22;18096;48.142;16.290;2023-06-14T00:33:27;14.30;99.90
14095;DHT22;18096;48.142;16.290;2023-06-14T00:35:52;14.30;99.90
14095;DHT22;18096;48.142;16.290;2023-06-14T00:38:21;14.30;99.90
14095;DHT22;18096;48.142;16.290;2023-06-14T00:40:46;14.20;99.90
14095;DHT22;18096;48.142;16.290;2023-06-14T00:43:12;14.20;99.90
14095;DHT22;18096;48.142;16.290;2023-06-14T00:45:38;14.20;99.90
14095;DHT22;18096;48.142;16.290;2023-06-14T00:48:04;14.10;99.90
14095;DHT22;18096;48.142;16.290;2023-06-14T00:50:32;14.10;99.90
14095;DHT22;18096;48.142;16.290;2023-06-14T00:53:01;14.10;99.90
14095;DHT22;18096;48.142;16.290;2023-06-14T00:55:28;14.10;99.90
14095;DHT22;18096;48.142;16.290;2023-06-14T00:57:55;14.10;99.90
14095;DHT22;18096;48.142;16.290;2023-06-14T01:00:21;14.10;99.90
14095;DHT22;18096;48.142;16.290;2023-06-14T01:02:47;14.10;99.90
14095;DHT22;18096;48.142;16.290;2023-06-14T01:05:15;14.10;99.90
14095;DHT22;18096;48.142;16.290;2023-06-14T01:08:05;14.10;99.90
14095;DHT22;18096;48.142;16.290;2023-06-14T01:13:36;14.10;99.90
14095;DHT22;18096;48.142;16.290;2023-06-14T01:16:04;14.20;99.90
14095;DHT22;18096;48.142;16.290;2023-06-14T01:18:30;14.10;99.90
14095;DHT22;18096;48.142;16.290;2023-06-14T01:20:57;14.10;99.90
14095;DHT22;18096;48.142;16.290;2023-06-14T01:23:24;14.10;99.90
14095;DHT22;18096;48.142;16.290;2023-06-14T01:25:50;14.10;99.90
14095;DHT22;18096;48.142;16.290;2023-06-14T01:28:21;14.10;99.90
14095;DHT22;18096;48.142;16.290;2023-06-14T01:30:49;14.10;99.90
14095;DHT22;18096;48.142;16.290;2023-06-14T01:33:26;14.10;99.90
14095;DHT22;18096;48.142;16.290;2023-06-14T01:35:53;14.10;99.90
14095;DHT22;18096;48.142;16.290;2023-06-14T01:38:22;14.10;99.90
14095;DHT22;18096;48.142;16.290;2023-06-14T01:40:49;14.10;99.90
14095;DHT22;18096;48.142;16.290;2023-06-14T01:43:16;14.00;99.90
14095;DHT22;18096;48.142;16.290;2023-06-14T01:45:42;14.00;99.90
14095;DHT22;18096;48.142;16.290;2023-06-14T01:48:09;14.00;99.90
14095;DHT22;18096;48.142;16.290;2023-06-14T01:50:35;14.00;99.90
14095;DHT22;18096;48.142;16.290;2023-06-14T01:53:01;14.10;99.90
14095;DHT22;18096;48.142;16.290;2023-06-14T01:55:27;14.10;99.90
14095;DHT22;18096;48.142;16.290;2023-06-14T01:57:53;14.10;99.90
14095;DHT22;18096;48.142;16.290;2023-06-14T02:00:20;14.10;99.90
14095;DHT22;18096;48.142;16.290;2023-06-14T02:02:47;14.10;99.90
14095;DHT22;18096;48.142;16.290;2023-06-14T02:05:12;14.10;99.90
14095;DHT22;18096;48.142;16.290;2023-06-14T02:07:38;14.10;99.90
14095;DHT22;18096;48.142;16.290;2023-06-14T02:10:07;14.10;99.90
14095;DHT22;18096;48.142;16.290;2023-06-14T02:12:32;14.10;99.90
14095;DHT22;18096;48.142;16.290;2023-06-14T02:14:58;14.10;99.90
14095;DHT22;18096;48.142;16.290;2023-06-14T02:17:24;14.20;99.90
14095;DHT22;18096;48.142;16.290;2023-06-14T02:19:50;14.20;99.90
14095;DHT22;18096;48.142;16.290;2023-06-14T02:22:16;14.20;99.90
14095;DHT22;18096;48.142;16.290;2023-06-14T02:24:42;14.20;99.90
14095;DHT22;18096;48.142;16.290;2023-06-14T02:27:09;14.20;99.90
14095;DHT22;18096;48.142;16.290;2023-06-14T02:29:37;14.20;99.90
14095;DHT22;18096;48.142;16.290;2023-06-14T02:32:04;14.20;99.90
14095;DHT22;18096;48.142;16.290;2023-06-14T02:34:33;14.20;99.90
14095;DHT22;18096;48.142;16.290;2023-06-14T02:36:59;14.20;99.90
14095;DHT22;18096;48.142;16.290;2023-06-14T02:39:25;14.20;99.90
14095;DHT22;18096;48.142;16.290;2023-06-14T02:41:50;14.20;99.90
14095;DHT22;18096;48.142;16.290;2023-06-14T02:44:18;14.20;99.90
14095;DHT22;18096;48.142;16.290;2023-06-14T02:46:44;14.20;99.90
14095;DHT22;18096;48.142;16.290;2023-06-14T02:49:11;14.10;99.90
14095;DHT22;18096;48.142;16.290;2023-06-14T02:51:37;14.10;99.90
14095;DHT22;18096;48.142;16.290;2023-06-14T02:54:02;14.10;99.90
14095;DHT22;18096;48.142;16.290;2023-06-14T02:56:28;14.10;99.90
14095;DHT22;18096;48.142;16.290;2023-06-14T02:58:55;14.10;99.90
14095;DHT22;18096;48.142;16.290;2023-06-14T03:01:20;14.10;99.90
14095;DHT22;18096;48.142;16.290;2023-06-14T03:03:47;14.10;99.90
14095;DHT22;18096;48.142;16.290;2023-06-14T03:06:12;14.10;99.90
14095;DHT22;18096;48.142;16.290;2023-06-14T03:08:40;14.00;99.90
14095;DHT22;18096;48.142;16.290;2023-06-14T03:11:07;14.00;99.90
14095;DHT22;18096;48.142;16.290;2023-06-14T03:13:35;14.10;99.90
14095;DHT22;18096;48.142;16.290;2023-06-14T03:16:01;14.10;99.90
14095;DHT22;18096;48.142;16.290;2023-06-14T03:18:30;14.10;99.90
14095;DHT22;18096;48.142;16.290;2023-06-14T03:20:58;14.00;99.90
14095;DHT22;18096;48.142;16.290;2023-06-14T03:23:24;14.00;99.90
14095;DHT22;18096;48.142;16.290;2023-06-14T03:25:52;14.00;99.90
14095;DHT22;18096;48.142;16.290;2023-06-14T03:28:18;14.00;99.90
14095;DHT22;18096;48.142;16.290;2023-06-14T03:30:43;14.00;99.90
14095;DHT22;18096;48.142;16.290;2023-06-14T03:33:09;14.00;99.90
14095;DHT22;18096;48.142;16.290;2023-06-14T03:35:35;14.00;99.90
14095;DHT22;18096;48.142;16.290;2023-06-14T03:38:00;14.00;99.90
14095;DHT22;18096;48.142;16.290;2023-06-14T03:40:28;14.00;99.90
14095;DHT22;18096;48.142;16.290;2023-06-14T03:42:54;14.00;99.90
14095;DHT22;18096;48.142;16.290;2023-06-14T03:45:20;14.00;99.90
14095;DHT22;18096;48.142;16.290;2023-06-14T03:47:46;13.90;99.90
14095;DHT22;18096;48.142;16.290;2023-06-14T03:50:13;13.90;99.90
14095;DHT22;18096;48.142;16.290;2023-06-14T03:52:38;13.90;99.90
14095;DHT22;18096;48.142;16.290;2023-06-14T03:55:05;13.80;99.90
14095;DHT22;18096;48.142;16.290;2023-06-14T03:57:30;13.90;99.90
14095;DHT22;18096;48.142;16.290;2023-06-14T03:59:56;13.90;99.90
14095;DHT22;18096;48.142;16.290;2023-06-14T04:02:22;14.00;99.90
14095;DHT22;18096;48.142;16.290;2023-06-14T04:04:48;14.10;99.90
14095;DHT22;18096;48.142;16.290;2023-06-14T04:07:15;14.10;99.90
14095;DHT22;18096;48.142;16.290;2023-06-14T04:09:45;14.10;99.90
14095;DHT22;18096;48.142;16.290;2023-06-14T04:12:10;14.20;99.90
14095;DHT22;18096;48.142;16.290;2023-06-14T04:14:39;14.20;99.90
14095;DHT22;18096;48.142;16.290;2023-06-14T04:17:05;14.20;99.90
14095;DHT22;18096;48.142;16.290;2023-06-14T04:19:31;14.20;99.90
14095;DHT22;18096;48.142;16.290;2023-06-14T04:21:57;14.20;99.90
14095;DHT22;18096;48.142;16.290;2023-06-14T04:24:24;14.20;99.90
14095;DHT22;18096;48.142;16.290;2023-06-14T04:27:00;14.30;99.90
14095;DHT22;18096;48.142;16.290;2023-06-14T04:29:26;14.40;99.90
14095;DHT22;18096;48.142;16.290;2023-06-14T04:31:55;14.40;99.90
14095;DHT22;18096;48.142;16.290;2023-06-14T04:34:28;14.50;99.90
14095;DHT22;18096;48.142;16.290;2023-06-14T04:36:58;14.60;99.90
14095;DHT22;18096;48.142;16.290;2023-06-14T04:39:25;14.60;99.90
14095;DHT22;18096;48.142;16.290;2023-06-14T04:41:51;14.60;99.90
14095;DHT22;18096;48.142;16.290;2023-06-14T04:44:18;14.60;99.90
14095;DHT22;18096;48.142;16.290;2023-06-14T04:46:45;14.60;99.90
14095;DHT22;18096;48.142;16.290;2023-06-14T04:49:15;14.60;99.90
14095;DHT22;18096;48.142;16.290;2023-06-14T04:51:42;14.70;99.90
14095;DHT22;18096;48.142;16.290;2023-06-14T04:54:12;14.70;99.90
14095;DHT22;18096;48.142;16.290;2023-06-14T04:56:41;14.80;99.90
14095;DHT22;18096;48.142;16.290;2023-06-14T04:59:08;14.80;99.90
14095;DHT22;18096;48.142;16.290;2023-06-14T05:01:34;14.80;99.90
14095;DHT22;18096;48.142;16.290;2023-06-14T05:04:00;14.80;99.90
14095;DHT22;18096;48.142;16.290;2023-06-14T05:06:25;14.90;99.90
14095;DHT22;18096;48.142;16.290;2023-06-14T05:08:54;14.90;99.90
14095;DHT22;18096;48.142;16.290;2023-06-14T05:11:20;15.00;99.90
14095;DHT22;18096;48.142;16.290;2023-06-14T05:13:45;15.00;99.90
14095;DHT22;18096;48.142;16.290;2023-06-14T05:16:12;15.00;99.90
14095;DHT22;18096;48.142;16.290;2023-06-14T05:18:38;15.10;99.90
14095;DHT22;18096;48.142;16.290;2023-06-14T05:21:03;15.20;99.90
14095;DHT22;18096;48.142;16.290;2023-06-14T05:23:32;15.20;99.90
14095;DHT22;18096;48.142;16.290;2023-06-14T05:25:58;15.30;99.90
14095;DHT22;18096;48.142;16.290;2023-06-14T05:28:24;15.40;99.90
14095;DHT22;18096;48.142;16.290;2023-06-14T05:30:50;15.50;99.90
14095;DHT22;18096;48.142;16.290;2023-06-14T05:33:16;15.50;99.90
14095;DHT22;18096;48.142;16.290;2023-06-14T05:35:42;15.60;99.90
14095;DHT22;18096;48.142;16.290;2023-06-14T05:38:07;15.70;99.90
14095;DHT22;18096;48.142;16.290;2023-06-14T05:40:33;15.90;99.90
14095;DHT22;18096;48.142;16.290;2023-06-14T05:42:59;15.90;99.90
14095;DHT22;18096;48.142;16.290;2023-06-14T05:45:25;15.90;99.90
14095;DHT22;18096;48.142;16.290;2023-06-14T05:47:51;15.90;99.90
14095;DHT22;18096;48.142;16.290;2023-06-14T05:50:17;15.90;99.90
14095;DHT22;18096;48.142;16.290;2023-06-14T05:52:43;15.90;99.90
14095;DHT22;18096;48.142;16.290;2023-06-14T05:55:09;16.00;99.90
14095;DHT22;18096;48.142;16.290;2023-06-14T05:57:37;16.10;99.90
14095;DHT22;18096;48.142;16.290;2023-06-14T06:00:03;16.20;99.90
14095;DHT22;18096;48.142;16.290;2023-06-14T06:02:55;16.30;99.90
14095;DHT22;18096;48.142;16.290;2023-06-14T06:05:23;16.50;99.90
14095;DHT22;18096;48.142;16.290;2023-06-14T06:07:49;16.60;99.90
14095;DHT22;18096;48.142;16.290;2023-06-14T06:10:15;16.70;99.90
14095;DHT22;18096;48.142;16.290;2023-06-14T06:12:44;16.70;99.90
14095;DHT22;18096;48.142;16.290;2023-06-14T06:15:10;16.70;99.90
14095;DHT22;18096;48.142;16.290;2023-06-14T06:17:38;16.80;99.90
14095;DHT22;18096;48.142;16.290;2023-06-14T06:20:04;16.80;99.90
14095;DHT22;18096;48.142;16.290;2023-06-14T06:22:33;16.90;99.90
14095;DHT22;18096;48.142;16.290;2023-06-14T06:24:58;16.90;99.90
14095;DHT22;18096;48.142;16.290;2023-06-14T06:27:24;17.00;99.90
14095;DHT22;18096;48.142;16.290;2023-06-14T06:29:50;17.10;99.90
14095;DHT22;18096;48.142;16.290;2023-06-14T06:32:17;17.10;99.90
14095;DHT22;18096;48.142;16.290;2023-06-14T06:34:43;17.10;99.90
14095;DHT22;18096;48.142;16.290;2023-06-14T06:37:08;17.20;99.90
14095;DHT22;18096;48.142;16.290;2023-06-14T06:39:34;17.20;99.90
14095;DHT22;18096;48.142;16.290;2023-06-14T06:42:00;17.20;99.90
14095;DHT22;18096;48.142;16.290;2023-06-14T06:44:26;17.20;99.90
14095;DHT22;18096;48.142;16.290;2023-06-14T06:46:52;17.30;99.90
14095;DHT22;18096;48.142;16.290;2023-06-14T06:49:17;17.40;99.90
14095;DHT22;18096;48.142;16.290;2023-06-14T06:51:52;17.50;99.90
14095;DHT22;18096;48.142;16.290;2023-06-14T06:54:24;17.60;99.90
14095;DHT22;18096;48.142;16.290;2023-06-14T06:56:50;17.60;99.90
14095;DHT22;18096;48.142;16.290;2023-06-14T06:59:15;17.70;99.90
14095;DHT22;18096;48.142;16.290;2023-06-14T07:01:42;17.70;99.90
14095;DHT22;18096;48.142;16.290;2023-06-14T07:04:07;17.80;99.90
14095;DHT22;18096;48.142;16.290;2023-06-14T07:06:33;17.90;99.90
14095;DHT22;18096;48.142;16.290;2023-06-14T07:08:59;17.90;99.90
14095;DHT22;18096;48.142;16.290;2023-06-14T07:11:27;17.90;99.90
14095;DHT22;18096;48.142;16.290;2023-06-14T07:13:53;17.90;99.90
14095;DHT22;18096;48.142;16.290;2023-06-14T07:16:18;17.90;99.90
14095;DHT22;18096;48.142;16.290;2023-06-14T07:18:44;17.90;99.90
14095;DHT22;18096;48.142;16.290;2023-06-14T07:21:10;17.90;99.90
14095;DHT22;18096;48.142;16.290;2023-06-14T07:23:35;18.00;99.90
14095;DHT22;18096;48.142;16.290;2023-06-14T07:26:01;18.10;99.90
14095;DHT22;18096;48.142;16.290;2023-06-14T07:28:27;18.10;99.90
14095;DHT22;18096;48.142;16.290;2023-06-14T07:30:53;18.20;99.90
14095;DHT22;18096;48.142;16.290;2023-06-14T07:33:18;18.30;99.90
14095;DHT22;18096;48.142;16.290;2023-06-14T07:35:44;18.30;99.90
14095;DHT22;18096;48.142;16.290;2023-06-14T07:38:11;18.30;99.90
14095;DHT22;18096;48.142;16.290;2023-06-14T07:40:36;18.30;99.90
14095;DHT22;18096;48.142;16.290;2023-06-14T07:43:02;18.30;99.90
14095;DHT22;18096;48.142;16.290;2023-06-14T07:45:28;18.40;99.90
14095;DHT22;18096;48.142;16.290;2023-06-14T07:47:54;18.40;99.90
14095;DHT22;18096;48.142;16.290;2023-06-14T07:50:19;18.50;99.90
14095;DHT22;18096;48.142;16.290;2023-06-14T07:52:45;18.50;99.90
14095;DHT22;18096;48.142;16.290;2023-06-14T07:55:12;18.60;99.90
14095;DHT22;18096;48.142;16.290;2023-06-14T07:57:38;18.50;99.90
14095;DHT22;18096;48.142;16.290;2023-06-14T08:00:04;18.50;99.90
14095;DHT22;18096;48.142;16.290;2023-06-14T08:02:33;18.40;99.90
14095;DHT22;18096;48.142;16.290;2023-06-14T08:04:59;18.40;99.90
14095;DHT22;18096;48.142;16.290;2023-06-14T08:07:24;18.30;99.90
14095;DHT22;18096;48.142;16.290;2023-06-14T08:09:50;18.30;99.90
14095;DHT22;18096;48.142;16.290;2023-06-14T08:12:15;18.20;99.90
14095;DHT22;18096;48.142;16.290;2023-06-14T08:14:42;18.30;99.90
14095;DHT22;18096;48.142;16.290;2023-06-14T08:17:08;18.20;99.90
14095;DHT22;18096;48.142;16.290;2023-06-14T08:19:33;18.20;99.90
14095;DHT22;18096;48.142;16.290;2023-06-14T08:21:59;18.20;99.90
14095;DHT22;18096;48.142;16.290;2023-06-14T08:24:25;18.30;99.90
14095;DHT22;18096;48.142;16.290;2023-06-14T08:26:53;18.30;99.90
14095;DHT22;18096;48.142;16.290;2023-06-14T08:29:19;18.40;99.90
14095;DHT22;18096;48.142;16.290;2023-06-14T08:31:45;18.50;99.90
14095;DHT22;18096;48.142;16.290;2023-06-14T08:34:11;18.60;99.90
14095;DHT22;18096;48.142;16.290;2023-06-14T08:36:36;18.70;99.90
14095;DHT22;18096;48.142;16.290;2023-06-14T08:39:02;18.70;99.90
14095;DHT22;18096;48.142;16.290;2023-06-14T08:41:28;18.80;99.90
14095;DHT22;18096;48.142;16.290;2023-06-14T08:43:55;18.80;99.90
14095;DHT22;18096;48.142;16.290;2023-06-14T08:46:23;18.80;99.90
14095;DHT22;18096;48.142;16.290;2023-06-14T08:48:51;18.80;99.90
14095;DHT22;18096;48.142;16.290;2023-06-14T08:51:20;18.90;99.80
14095;DHT22;18096;48.142;16.290;2023-06-14T08:53:55;18.80;99.70
14095;DHT22;18096;48.142;16.290;2023-06-14T08:56:30;18.80;99.80
14095;DHT22;18096;48.142;16.290;2023-06-14T08:59:00;18.90;99.90
14095;DHT22;18096;48.142;16.290;2023-06-14T09:01:37;18.90;99.90
14095;DHT22;18096;48.142;16.290;2023-06-14T09:04:03;18.90;99.90
14095;DHT22;18096;48.142;16.290;2023-06-14T09:06:31;19.00;99.90
14095;DHT22;18096;48.142;16.290;2023-06-14T09:08:57;19.00;99.90
14095;DHT22;18096;48.142;16.290;2023-06-14T09:11:23;19.10;99.90
14095;DHT22;18096;48.142;16.290;2023-06-14T09:13:50;19.10;99.50
14095;DHT22;18096;48.142;16.290;2023-06-14T09:16:16;19.10;99.30
14095;DHT22;18096;48.142;16.290;2023-06-14T09:18:43;19.10;99.60
14095;DHT22;18096;48.142;16.290;2023-06-14T09:21:11;19.10;98.80
14095;DHT22;18096;48.142;16.290;2023-06-14T09:23:38;19.10;98.60
14095;DHT22;18096;48.142;16.290;2023-06-14T09:26:11;19.10;98.50
14095;DHT22;18096;48.142;16.290;2023-06-14T09:28:45;19.20;98.30
14095;DHT22;18096;48.142;16.290;2023-06-14T09:31:16;19.10;97.80
14095;DHT22;18096;48.142;16.290;2023-06-14T09:33:46;19.20;97.50
14095;DHT22;18096;48.142;16.290;2023-06-14T09:36:26;19.20;98.10
14095;DHT22;18096;48.142;16.290;2023-06-14T09:39:01;19.20;98.50
14095;DHT22;18096;48.142;16.290;2023-06-14T09:41:40;19.30;99.00
14095;DHT22;18096;48.142;16.290;2023-06-14T09:44:10;19.30;98.50
14095;DHT22;18096;48.142;16.290;2023-06-14T09:46:37;19.30;97.60
14095;DHT22;18096;48.142;16.290;2023-06-14T09:49:04;19.30;98.00
14095;DHT22;18096;48.142;16.290;2023-06-14T09:51:30;19.40;98.50
14095;DHT22;18096;48.142;16.290;2023-06-14T09:54:02;19.40;97.90
14095;DHT22;18096;48.142;16.290;2023-06-14T09:56:31;19.40;98.00
14095;DHT22;18096;48.142;16.290;2023-06-14T09:58:58;19.50;98.30
14095;DHT22;18096;48.142;16.290;2023-06-14T10:01:25;19.60;98.70
14095;DHT22;18096;48.142;16.290;2023-06-14T10:03:55;19.70;98.20
14095;DHT22;18096;48.142;16.290;2023-06-14T10:06:23;19.80;97.40
14095;DHT22;18096;48.142;16.290;2023-06-14T10:08:52;19.80;96.80
14095;DHT22;18096;48.142;16.290;2023-06-14T10:11:21;19.90;96.00
14095;DHT22;18096;48.142;16.290;2023-06-14T10:13:47;19.90;95.50
14095;DHT22;18096;48.142;16.290;2023-06-14T10:19:00;20.00;94.70
14095;DHT22;18096;48.142;16.290;2023-06-14T10:22:00;20.10;95.70
14095;DHT22;18096;48.142;16.290;2023-06-14T10:24:33;20.20;95.00
14095;DHT22;18096;48.142;16.290;2023-06-14T10:27:00;20.30;95.00
14095;DHT22;18096;48.142;16.290;2023-06-14T10:29:29;20.30;93.10
14095;DHT22;18096;48.142;16.290;2023-06-14T10:31:59;20.30;93.30
14095;DHT22;18096;48.142;16.290;2023-06-14T10:34:29;20.30;93.50
14095;DHT22;18096;48.142;16.290;2023-06-14T10:37:06;20.30;93.70
14095;DHT22;18096;48.142;16.290;2023-06-14T10:39:42;20.30;93.80
14095;DHT22;18096;48.142;16.290;2023-06-14T10:42:09;20.20;93.90
14095;DHT22;18096;48.142;16.290;2023-06-14T10:44:54;20.20;94.40
14095;DHT22;18096;48.142;16.290;2023-06-14T10:47:29;20.30;95.00
14095;DHT22;18096;48.142;16.290;2023-06-14T10:50:03;20.40;96.50
14095;DHT22;18096;48.142;16.290;2023-06-14T10:52:31;20.60;95.50
14095;DHT22;18096;48.142;16.290;2023-06-14T11:00:08;20.70;92.90
14095;DHT22;18096;48.142;16.290;2023-06-14T11:11:09;20.90;92.70
14095;DHT22;18096;48.142;16.290;2023-06-14T11:13:40;21.00;92.00
14095;DHT22;18096;48.142;16.290;2023-06-14T11:16:17;21.00;92.40
14095;DHT22;18096;48.142;16.290;2023-06-14T11:18:44;21.10;91.90
14095;DHT22;18096;48.142;16.290;2023-06-14T11:21:11;21.20;91.70
14095;DHT22;18096;48.142;16.290;2023-06-14T11:23:37;21.30;90.90
14095;DHT22;18096;48.142;16.290;2023-06-14T11:26:03;21.20;90.50
14095;DHT22;18096;48.142;16.290;2023-06-14T11:28:40;21.10;90.20
14095;DHT22;18096;48.142;16.290;2023-06-14T11:31:07;21.10;90.50
14095;DHT22;18096;48.142;16.290;2023-06-14T11:33:33;21.20;91.10
14095;DHT22;18096;48.142;16.290;2023-06-14T11:36:01;21.20;91.20
14095;DHT22;18096;48.142;16.290;2023-06-14T11:38:27;21.30;91.20
14095;DHT22;18096;48.142;16.290;2023-06-14T11:40:52;21.40;91.80
14095;DHT22;18096;48.142;16.290;2023-06-14T11:43:18;21.40;90.70
14095;DHT22;18096;48.142;16.290;2023-06-14T11:45:48;21.40;90.90
14095;DHT22;18096;48.142;16.290;2023-06-14T11:48:13;21.50;90.30
14095;DHT22;18096;48.142;16.290;2023-06-14T11:50:39;21.50;89.80
14095;DHT22;18096;48.142;16.290;2023-06-14T11:53:05;21.50;90.00
14095;DHT22;18096;48.142;16.290;2023-06-14T11:55:39;21.60;90.20
14095;DHT22;18096;48.142;16.290;2023-06-14T11:58:06;21.60;89.50
14095;DHT22;18096;48.142;16.290;2023-06-14T12:00:32;21.60;89.80
14095;DHT22;18096;48.142;16.290;2023-06-14T12:02:58;21.70;90.20
14095;DHT22;18096;48.142;16.290;2023-06-14T12:05:25;21.70;90.90
14095;DHT22;18096;48.142;16.290;2023-06-14T12:07:58;21.80;90.60
14095;DHT22;18096;48.142;16.290;2023-06-14T12:10:26;21.80;90.60
14095;DHT22;18096;48.142;16.290;2023-06-14T12:12:59;21.90;91.20
14095;DHT22;18096;48.142;16.290;2023-06-14T12:15:28;21.90;90.30
14095;DHT22;18096;48.142;16.290;2023-06-14T12:17:55;21.90;90.40
14095;DHT22;18096;48.142;16.290;2023-06-14T12:20:20;22.00;91.00
14095;DHT22;18096;48.142;16.290;2023-06-14T12:22:54;22.00;91.40
14095;DHT22;18096;48.142;16.290;2023-06-14T12:25:31;22.00;89.70
14095;DHT22;18096;48.142;16.290;2023-06-14T12:27:58;21.90;87.80
14095;DHT22;18096;48.142;16.290;2023-06-14T12:30:24;21.80;88.50
14095;DHT22;18096;48.142;16.290;2023-06-14T12:32:49;21.70;90.00
14095;DHT22;18096;48.142;16.290;2023-06-14T12:35:17;21.60;90.50
14095;DHT22;18096;48.142;16.290;2023-06-14T12:37:44;21.60;90.80
14095;DHT22;18096;48.142;16.290;2023-06-14T12:40:10;21.50;91.10
14095;DHT22;18096;48.142;16.290;2023-06-14T12:42:36;21.40;90.90
14095;DHT22;18096;48.142;16.290;2023-06-14T12:45:02;21.30;91.00
14095;DHT22;18096;48.142;16.290;2023-06-14T12:47:28;21.20;91.00
14095;DHT22;18096;48.142;16.290;2023-06-14T12:49:54;21.10;90.80
14095;DHT22;18096;48.142;16.290;2023-06-14T12:52:19;21.00;90.50
14095;DHT22;18096;48.142;16.290;2023-06-14T12:54:45;21.00;90.40
14095;DHT22;18096;48.142;16.290;2023-06-14T12:57:29;20.90;90.80
14095;DHT22;18096;48.142;16.290;2023-06-14T12:59:55;20.90;91.60
14095;DHT22;18096;48.142;16.290;2023-06-14T13:02:20;20.90;91.90
14095;DHT22;18096;48.142;16.290;2023-06-14T13:04:47;20.90;92.00
14095;DHT22;18096;48.142;16.290;2023-06-14T13:07:13;21.00;91.70
14095;DHT22;18096;48.142;16.290;2023-06-14T13:09:40;21.00;91.90
14095;DHT22;18096;48.142;16.290;2023-06-14T13:12:07;20.90;92.70
14095;DHT22;18096;48.142;16.290;2023-06-14T13:14:32;20.90;92.80
14095;DHT22;18096;48.142;16.290;2023-06-14T13:16:58;20.80;93.80
14095;DHT22;18096;48.142;16.290;2023-06-14T13:19:24;20.80;93.60
14095;DHT22;18096;48.142;16.290;2023-06-14T13:21:50;20.70;93.90
14095;DHT22;18096;48.142;16.290;2023-06-14T13:24:15;20.50;92.00
14095;DHT22;18096;48.142;16.290;2023-06-14T13:26:41;20.50;91.40
14095;DHT22;18096;48.142;16.290;2023-06-14T13:29:07;20.40;90.90
14095;DHT22;18096;48.142;16.290;2023-06-14T13:31:32;20.40;90.60
14095;DHT22;18096;48.142;16.290;2023-06-14T13:33:58;20.40;90.60
14095;DHT22;18096;48.142;16.290;2023-06-14T13:36:24;20.50;90.20
14095;DHT22;18096;48.142;16.290;2023-06-14T13:38:49;20.60;90.20
14095;DHT22;18096;48.142;16.290;2023-06-14T13:41:17;20.60;90.40
14095;DHT22;18096;48.142;16.290;2023-06-14T13:43:42;20.70;90.80
14095;DHT22;18096;48.142;16.290;2023-06-14T13:46:08;20.70;92.00
14095;DHT22;18096;48.142;16.290;2023-06-14T13:48:33;20.60;91.10
14095;DHT22;18096;48.142;16.290;2023-06-14T13:51:00;20.60;91.00
14095;DHT22;18096;48.142;16.290;2023-06-14T13:53:26;20.60;90.20
14095;DHT22;18096;48.142;16.290;2023-06-14T13:55:52;20.60;90.50
14095;DHT22;18096;48.142;16.290;2023-06-14T13:58:18;20.70;90.40
14095;DHT22;18096;48.142;16.290;2023-06-14T14:00:44;20.80;90.20
14095;DHT22;18096;48.142;16.290;2023-06-14T14:03:10;20.80;90.50
14095;DHT22;18096;48.142;16.290;2023-06-14T14:05:36;20.90;90.30
14095;DHT22;18096;48.142;16.290;2023-06-14T14:08:02;20.90;90.40
14095;DHT22;18096;48.142;16.290;2023-06-14T14:10:29;20.90;90.30
14095;DHT22;18096;48.142;16.290;2023-06-14T14:12:54;20.90;90.20
14095;DHT22;18096;48.142;16.290;2023-06-14T14:15:20;21.00;90.20
14095;DHT22;18096;48.142;16.290;2023-06-14T14:17:46;21.10;90.30
14095;DHT22;18096;48.142;16.290;2023-06-14T14:20:12;21.20;90.20
14095;DHT22;18096;48.142;16.290;2023-06-14T14:22:41;21.20;89.30
14095;DHT22;18096;48.142;16.290;2023-06-14T14:25:07;21.30;90.40
14095;DHT22;18096;48.142;16.290;2023-06-14T14:27:32;21.20;90.20
14095;DHT22;18096;48.142;16.290;2023-06-14T14:29:58;21.20;90.00
14095;DHT22;18096;48.142;16.290;2023-06-14T14:32:24;21.10;90.30
14095;DHT22;18096;48.142;16.290;2023-06-14T14:34:49;21.00;88.70
14095;DHT22;18096;48.142;16.290;2023-06-14T14:37:16;21.00;89.10
14095;DHT22;18096;48.142;16.290;2023-06-14T14:39:41;21.00;89.40
14095;DHT22;18096;48.142;16.290;2023-06-14T14:42:07;21.10;89.40
14095;DHT22;18096;48.142;16.290;2023-06-14T14:44:33;21.20;90.00
14095;DHT22;18096;48.142;16.290;2023-06-14T14:46:59;21.30;90.30
14095;DHT22;18096;48.142;16.290;2023-06-14T14:49:24;21.30;90.20
14095;DHT22;18096;48.142;16.290;2023-06-14T14:51:50;21.40;89.00
14095;DHT22;18096;48.142;16.290;2023-06-14T14:54:15;21.50;89.10
14095;DHT22;18096;48.142;16.290;2023-06-14T14:56:41;21.50;89.30
14095;DHT22;18096;48.142;16.290;2023-06-14T14:59:07;21.60;89.30
14095;DHT22;18096;48.142;16.290;2023-06-14T15:01:32;21.60;88.60
14095;DHT22;18096;48.142;16.290;2023-06-14T15:03:58;21.70;88.60
14095;DHT22;18096;48.142;16.290;2023-06-14T15:06:23;21.80;89.10
14095;DHT22;18096;48.142;16.290;2023-06-14T15:08:49;21.80;89.40
14095;DHT22;18096;48.142;16.290;2023-06-14T15:11:16;21.90;87.60
14095;DHT22;18096;48.142;16.290;2023-06-14T15:13:41;21.90;86.70
14095;DHT22;18096;48.142;16.290;2023-06-14T15:16:07;22.00;87.70
14095;DHT22;18096;48.142;16.290;2023-06-14T15:18:32;22.00;88.20
14095;DHT22;18096;48.142;16.290;2023-06-14T15:20:58;22.00;89.10
14095;DHT22;18096;48.142;16.290;2023-06-14T15:23:24;22.00;88.90
14095;DHT22;18096;48.142;16.290;2023-06-14T15:25:49;22.00;88.30
14095;DHT22;18096;48.142;16.290;2023-06-14T15:28:17;21.90;87.20
14095;DHT22;18096;48.142;16.290;2023-06-14T15:30:43;21.90;86.90
14095;DHT22;18096;48.142;16.290;2023-06-14T15:33:08;21.80;88.50
14095;DHT22;18096;48.142;16.290;2023-06-14T15:35:34;21.80;84.70